Time;durP1;ratioP1;P1;durP2;ratioP2;P2;SDS_P1;SDS_P2;PMS_P1;PMS_P2;Temp;Humidity;BMP_temperature;BMP_pressure;BME280_temperature;BME280_humidity;BME280_pressure;Samples;Min_cycle;Max_cycle;Signal;HPM_P1;HPM_P2
2022/06/25 00:02:08;;;;;;;4.05;3.65;;;;;;;23.95;100.00;100707.41;5138749;28;20060;-73
2022/06/25 00:07:59;;;;;;;6.53;3.55;;;;;;;24.22;100.00;100709.94;5140105;28;20042;-73
2022/06/25 00:10:44;;;;;;;8.25;4.00;;;;;;;24.09;100.00;100695.72;5141535;28;20056;-73
2022/06/25 00:13:30;;;;;;;5.07;3.45;;;;;;;24.31;100.00;100707.41;5124305;28;20019;-73
2022/06/25 00:16:16;;;;;;;7.25;3.83;;;;;;;24.37;100.00;100706.09;5140814;28;20019;-73
2022/06/25 00:19:03;;;;;;;7.28;3.60;;;;;;;24.16;100.00;100707.69;5136301;28;20015;-73
2022/06/25 00:21:49;;;;;;;13.30;7.43;;;;;;;24.10;100.00;100714.34;5136208;28;20371;-74
2022/06/25 00:24:35;;;;;;;9.18;5.60;;;;;;;24.31;100.00;100704.72;5123795;28;20038;-74
2022/06/25 00:27:21;;;;;;;7.20;3.53;;;;;;;24.41;100.00;100700.41;5122846;28;20452;-73
2022/06/25 00:30:08;;;;;;;7.03;5.30;;;;;;;24.41;99.76;100700.41;5134354;28;20092;-74
2022/06/25 00:32:54;;;;;;;6.60;3.95;;;;;;;24.33;100.00;100699.25;5133934;28;20459;-73
2022/06/25 00:35:40;;;;;;;5.85;3.80;;;;;;;24.44;99.39;100700.19;5136510;28;20172;-73
2022/06/25 00:38:27;;;;;;;7.75;3.83;;;;;;;24.48;98.92;100711.53;5121034;28;20120;-73
2022/06/25 00:41:13;;;;;;;9.77;4.60;;;;;;;24.26;100.00;100712.25;5133755;28;20160;-74
2022/06/25 00:43:58;;;;;;;7.05;4.88;;;;;;;24.12;100.00;100712.44;5133212;28;20096;-73
2022/06/25 00:46:47;;;;;;;7.40;4.95;;;;;;;24.11;100.00;100710.69;5133275;28;20019;-73
2022/06/25 00:49:33;;;;;;;6.07;4.68;;;;;;;23.82;100.00;100711.09;5132974;28;20019;-73
2022/06/25 00:52:21;;;;;;;5.28;4.40;;;;;;;23.60;100.00;100709.09;5133592;28;20038;-74
2022/06/25 00:55:12;;;;;;;7.40;4.63;;;;;;;23.58;100.00;100697.63;5132672;28;20031;-74
2022/06/25 00:58:00;;;;;;;9.32;4.70;;;;;;;23.61;100.00;100699.22;5133481;27;20084;-74
2022/06/25 01:00:48;;;;;;;5.82;4.10;;;;;;;23.31;100.00;100700.44;5136190;27;20038;-73
2022/06/25 01:03:34;;;;;;;5.32;3.97;;;;;;;23.20;100.00;100697.66;5136418;27;20019;-73
2022/06/25 01:06:20;;;;;;;8.93;4.40;;;;;;;23.42;100.00;100687.16;5120725;27;20336;-72
2022/06/25 01:09:06;;;;;;;7.22;4.85;;;;;;;23.44;100.00;100690.56;5136413;27;20083;-74
2022/06/25 01:11:52;;;;;;;7.57;4.22;;;;;;;23.31;100.00;100699.59;5136463;27;20086;-74
2022/06/25 01:14:38;;;;;;;8.02;4.55;;;;;;;23.24;100.00;100701.81;5136180;27;20028;-72
2022/06/25 01:17:23;;;;;;;8.07;4.85;;;;;;;23.26;100.00;100704.38;5121668;27;20049;-72
2022/06/25 01:20:11;;;;;;;7.80;4.22;;;;;;;23.08;100.00;100706.47;5121651;27;20015;-73
2022/06/25 01:22:56;;;;;;;8.95;4.20;;;;;;;23.30;100.00;100703.22;5121706;27;20432;-73
2022/06/25 01:25:42;;;;;;;9.07;4.70;;;;;;;23.41;100.00;100703.31;5136233;27;20042;-74
2022/06/25 01:28:28;;;;;;;7.22;4.80;;;;;;;23.51;100.00;100706.22;5136259;27;20061;-73
2022/06/25 01:31:14;;;;;;;7.53;4.63;;;;;;;23.35;100.00;100703.78;5135780;27;20434;-72
2022/06/25 01:34:00;;;;;;;7.68;6.20;;;;;;;23.44;100.00;100706.63;5135852;27;20101;-73
2022/06/25 01:36:46;;;;;;;5.40;4.50;;;;;;;23.57;100.00;100705.75;5135981;27;20082;-75
2022/06/25 01:39:32;;;;;;;7.75;3.83;;;;;;;23.30;100.00;100697.88;5121163;27;20023;-72
2022/06/25 01:45:22;;;;;;;6.47;3.90;;;;;;;23.35;100.00;100707.28;5135933;27;20045;-73
2022/06/25 01:48:08;;;;;;;7.75;3.60;;;;;;;23.35;100.00;100715.31;5135445;27;20019;-73
2022/06/25 01:50:54;;;;;;;6.68;3.63;;;;;;;23.15;100.00;100721.16;5136013;27;20367;-74
2022/06/25 01:53:40;;;;;;;6.85;4.35;;;;;;;23.60;100.00;100716.25;5120455;27;20030;-72
2022/06/25 01:56:25;;;;;;;7.07;4.80;;;;;;;23.66;100.00;100713.16;5121211;27;20050;-73
2022/06/25 01:59:11;;;;;;;6.90;4.97;;;;;;;23.10;100.00;100717.94;5135321;27;20077;-73
2022/06/25 02:01:57;;;;;;;9.30;4.70;;;;;;;22.88;100.00;100727.53;5135875;27;20029;-73
2022/06/25 02:04:42;;;;;;;6.65;4.53;;;;;;;23.27;100.00;100717.66;5135271;27;20443;-73
2022/06/25 02:07:28;;;;;;;12.15;4.95;;;;;;;23.35;100.00;100720.66;5135441;27;20031;-73
2022/06/25 02:10:14;;;;;;;7.00;4.78;;;;;;;22.93;100.00;100720.91;5134870;27;20439;-74
2022/06/25 02:13:00;;;;;;;8.13;4.50;;;;;;;23.02;100.00;100714.94;5135149;27;20119;-74
2022/06/25 02:15:46;;;;;;;5.80;4.25;;;;;;;22.97;100.00;100710.88;5135475;27;20035;-75
2022/06/25 02:18:32;;;;;;;5.00;4.20;;;;;;;22.87;100.00;100723.16;5135027;27;20023;-74
2022/06/25 02:21:19;;;;;;;6.68;4.10;;;;;;;23.28;100.00;100718.53;5135560;27;20412;-73
2022/06/25 02:24:05;;;;;;;4.95;4.38;;;;;;;23.07;100.00;100720.81;5134759;27;20023;-74
2022/06/25 02:26:50;;;;;;;9.25;4.90;;;;;;;23.08;100.00;100735.06;5134873;27;20047;-73
2022/06/25 02:29:36;;;;;;;7.43;4.60;;;;;;;22.97;100.00;100748.28;5134848;27;20022;-74
2022/06/25 02:32:22;;;;;;;7.43;4.38;;;;;;;23.02;100.00;100735.44;5120091;27;20058;-73
2022/06/25 02:35:08;;;;;;;6.32;4.15;;;;;;;23.14;100.00;100740.81;5121007;27;20461;-73
2022/06/25 02:37:54;;;;;;;6.88;4.18;;;;;;;22.93;100.00;100741.44;5120674;27;20046;-72
2022/06/25 02:40:40;;;;;;;11.63;4.75;;;;;;;23.02;100.00;100741.66;5120150;27;20121;-72
2022/06/25 02:43:26;;;;;;;8.18;4.20;;;;;;;22.78;100.00;100740.66;5120026;27;20023;-74
2022/06/25 02:46:11;;;;;;;6.05;3.80;;;;;;;23.25;100.00;100748.13;5134708;27;20358;-73
2022/06/25 02:48:57;;;;;;;6.30;3.72;;;;;;;23.02;100.00;100746.13;5133803;27;20068;-74
2022/06/25 02:51:43;;;;;;;6.13;3.22;;;;;;;22.65;100.00;100744.25;5134851;27;20474;-74
2022/06/25 02:54:29;;;;;;;16.92;3.72;;;;;;;22.95;100.00;100755.56;5134235;27;20050;-73
2022/06/25 03:00:19;;;;;;;11.00;4.00;;;;;;;23.08;100.00;100759.09;5134346;27;20368;-73
2022/06/25 03:03:04;;;;;;;4.43;3.67;;;;;;;23.23;100.00;100764.28;5134189;27;20027;-73
2022/06/25 03:05:50;;;;;;;8.43;3.80;;;;;;;23.05;100.00;100768.19;5134119;27;20054;-73
2022/06/25 03:08:36;;;;;;;5.53;4.05;;;;;;;23.34;100.00;100767.06;5134345;27;20023;-73
2022/06/25 03:11:22;;;;;;;6.82;3.83;;;;;;;23.13;100.00;100767.66;5120225;27;20439;-73
2022/06/25 03:14:08;;;;;;;8.07;3.75;;;;;;;23.10;100.00;100766.06;5134356;27;20084;-74
2022/06/25 03:16:53;;;;;;;8.68;3.60;;;;;;;23.25;100.00;100774.88;5119782;27;20027;-74
2022/06/25 03:19:39;;;;;;;6.10;4.30;;;;;;;23.16;100.00;100775.47;5133967;27;20023;-73
2022/06/25 03:22:25;;;;;;;6.07;3.78;;;;;;;23.08;100.00;100777.81;5133651;27;20019;-74
2022/06/25 03:25:11;;;;;;;8.20;4.07;;;;;;;23.04;100.00;100778.97;5118631;27;20015;-73
2022/06/25 03:27:57;;;;;;;10.98;4.20;;;;;;;23.12;100.00;100782.00;5133766;27;20054;-74
2022/06/25 03:30:43;;;;;;;8.18;3.60;;;;;;;23.22;100.00;100767.91;5119064;27;20027;-74
2022/06/25 03:33:29;;;;;;;10.65;4.10;;;;;;;23.43;100.00;100765.59;5134138;27;20041;-74
2022/06/25 03:36:15;;;;;;;4.88;3.38;;;;;;;23.21;100.00;100770.69;5133724;27;20038;-73
2022/06/25 03:39:02;;;;;;;8.57;3.63;;;;;;;23.01;100.00;100772.03;5133853;27;20031;-74
2022/06/25 03:41:48;;;;;;;6.53;3.97;;;;;;;23.04;100.00;100773.63;5133626;27;20427;-74
2022/06/25 03:44:34;;;;;;;11.02;4.25;;;;;;;23.25;100.00;100766.84;5133498;28;20016;-74
2022/06/25 03:47:20;;;;;;;11.07;3.70;;;;;;;23.29;100.00;100766.53;5133696;28;20051;-74
2022/06/25 03:50:06;;;;;;;5.43;4.07;;;;;;;23.08;100.00;100767.97;5133934;28;20034;-73
2022/06/25 03:52:52;;;;;;;5.22;3.50;;;;;;;23.36;100.00;100764.31;5133357;28;20031;-74
2022/06/25 03:55:38;;;;;;;6.03;4.07;;;;;;;23.38;100.00;100765.91;5133902;28;20073;-74
2022/06/25 03:58:24;;;;;;;6.55;3.83;;;;;;;23.17;100.00;100769.16;5118797;28;20488;-74
2022/06/25 04:01:09;;;;;;;8.77;3.70;;;;;;;23.52;100.00;100766.75;5133501;28;20041;-73
2022/06/25 04:03:55;;;;;;;8.38;4.22;;;;;;;23.41;100.00;100767.50;5133488;28;20011;-74
2022/06/25 04:06:41;;;;;;;6.55;3.92;;;;;;;23.40;100.00;100755.09;5118209;28;20023;-72
2022/06/25 04:09:27;;;;;;;5.40;3.75;;;;;;;22.85;100.00;100765.13;5117786;28;20023;-73
2022/06/25 04:12:13;;;;;;;6.18;3.90;;;;;;;23.24;100.00;100768.66;5132416;28;20059;-74
2022/06/25 04:14:58;;;;;;;8.23;4.13;;;;;;;22.99;100.00;100767.75;5133945;28;20023;-73
2022/06/25 04:17:44;;;;;;;6.88;3.83;;;;;;;23.09;100.00;100775.03;5125264;28;20050;-73
2022/06/25 04:20:30;;;;;;;11.32;4.25;;;;;;;23.47;100.00;100768.91;5127864;28;20050;-74
2022/06/25 04:23:16;;;;;;;13.13;4.47;;;;;;;23.82;100.00;100773.47;5133291;28;20126;-75
2022/06/25 04:26:02;;;;;;;5.70;3.67;;;;;;;23.69;100.00;100764.63;5132944;28;20359;-74
2022/06/25 04:29:08;;;;;;;8.65;3.63;;;;;;;23.56;100.00;100766.44;5118000;28;20049;-74
2022/06/25 04:31:53;;;;;;;6.72;3.55;;;;;;;23.87;100.00;100760.63;5133978;27;20069;-73
2022/06/25 04:34:39;;;;;;;7.15;3.65;;;;;;;23.82;100.00;100770.81;5137000;27;20083;-74
2022/06/25 04:37:25;;;;;;;7.70;4.00;;;;;;;23.91;100.00;100770.16;5121925;27;20385;-74
2022/06/25 04:40:11;;;;;;;6.15;3.47;;;;;;;24.16;100.00;100785.34;5137215;27;20038;-74
2022/06/25 04:42:57;;;;;;;5.80;3.97;;;;;;;23.87;100.00;100783.88;5136724;27;20023;-73
2022/06/25 04:45:43;;;;;;;8.85;3.63;;;;;;;24.21;100.00;100791.22;5136663;27;20038;-73
2022/06/25 04:48:28;;;;;;;6.07;3.97;;;;;;;24.43;100.00;100794.88;5136907;27;20458;-73
2022/06/25 04:51:14;;;;;;;8.50;3.78;;;;;;;24.45;100.00;100795.66;5122817;27;20027;-73
2022/06/25 04:54:03;;;;;;;5.70;3.90;;;;;;;24.54;100.00;100796.78;5135844;27;20037;-73
2022/06/25 04:56:48;;;;;;;13.52;5.15;;;;;;;24.73;100.00;100798.03;5122857;27;20133;-72
2022/06/25 04:59:34;;;;;;;6.07;3.78;;;;;;;24.53;100.00;100797.75;5136862;27;20027;-73
2022/06/25 05:02:20;;;;;;;7.03;3.53;;;;;;;24.62;100.00;100800.66;5137073;27;20033;-72
2022/06/25 05:05:07;;;;;;;11.38;3.83;;;;;;;24.40;100.00;100796.94;5136163;27;20445;-75
2022/06/25 05:07:53;;;;;;;8.27;3.90;;;;;;;24.74;100.00;100799.75;5136470;27;20031;-74
2022/06/25 05:10:38;;;;;;;17.13;11.55;;;;;;;24.97;100.00;100803.38;5136909;27;20031;-77
2022/06/25 05:13:24;;;;;;;14.30;7.57;;;;;;;25.12;100.00;100810.25;5138006;27;20020;-76
2022/06/25 05:16:10;;;;;;;7.30;4.10;;;;;;;25.49;98.83;100803.81;5137611;27;20065;-76
2022/06/25 05:18:56;;;;;;;7.53;3.65;;;;;;;25.41;100.00;100811.59;5137290;27;20027;-76
2022/06/25 05:21:41;;;;;;;9.82;4.13;;;;;;;25.32;98.62;100806.94;5137266;27;20468;-76
2022/06/25 05:24:27;;;;;;;8.90;4.05;;;;;;;25.33;100.00;100814.88;5137335;27;20019;-76
2022/06/25 05:27:13;;;;;;;9.52;4.30;;;;;;;25.57;99.35;100814.81;5137083;27;20082;-77
2022/06/25 05:29:59;;;;;;;6.55;4.13;;;;;;;25.55;99.80;100814.09;5136103;27;20113;-76
2022/06/25 05:32:44;;;;;;;8.52;3.90;;;;;;;25.59;98.62;100816.41;5137444;27;20443;-76
2022/06/25 05:35:30;;;;;;;6.72;4.05;;;;;;;25.73;98.58;100805.44;5137433;27;20458;-77
2022/06/25 05:38:16;;;;;;;6.72;3.92;;;;;;;25.93;97.68;100812.78;5137606;27;20097;-76
2022/06/25 05:41:07;;;;;;;13.38;4.72;;;;;;;26.12;96.65;100812.22;5124130;27;20066;-75
2022/06/25 05:43:53;;;;;;;10.45;4.35;;;;;;;25.61;97.64;100809.09;5136288;27;20019;-77
2022/06/25 05:46:39;;;;;;;8.82;4.28;;;;;;;25.94;97.90;100811.84;5121595;27;20062;-76
2022/06/25 05:49:25;;;;;;;12.63;4.43;;;;;;;26.17;96.53;100818.91;5136516;27;20019;-76
2022/06/25 05:52:10;;;;;;;6.97;4.15;;;;;;;26.29;96.27;100820.59;5136333;27;20344;-77
2022/06/25 05:54:56;;;;;;;5.93;4.10;;;;;;;26.65;94.90;100825.69;5136625;27;20165;-76
2022/06/25 05:57:42;;;;;;;8.15;4.10;;;;;;;26.40;94.78;100822.44;5122385;27;20452;-76
2022/06/25 06:00:28;;;;;;;10.18;3.88;;;;;;;26.75;91.40;100823.09;5120947;27;20023;-76
2022/06/25 06:03:14;;;;;;;6.85;4.03;;;;;;;26.73;91.06;100830.47;5121054;27;20370;-76
2022/06/25 06:06:00;;;;;;;7.45;3.92;;;;;;;26.75;90.56;100828.47;5121052;27;20019;-77
2022/06/25 06:08:45;;;;;;;6.28;4.50;;;;;;;26.52;99.47;100830.34;5122127;27;20031;-77
2022/06/25 06:11:31;;;;;;;9.13;4.82;;;;;;;26.97;100.00;100825.75;5136487;27;20022;-77
2022/06/25 06:14:17;;;;;;;7.72;4.97;;;;;;;26.97;100.00;100825.75;5136945;27;20023;-77
2022/06/25 06:17:03;;;;;;;7.47;4.72;;;;;;;26.90;99.49;100838.84;5122802;27;20447;-77
2022/06/25 06:19:48;;;;;;;13.20;5.55;;;;;;;26.65;100.00;100830.22;5136579;27;20451;-77
2022/06/25 06:22:35;;;;;;;8.30;4.80;;;;;;;26.53;100.00;100826.66;5136382;27;20043;-76
2022/06/25 06:25:20;;;;;;;9.77;5.60;;;;;;;26.98;100.00;100828.31;5136607;27;20482;-77
2022/06/25 06:28:06;;;;;;;7.20;5.05;;;;;;;26.86;100.00;100825.78;5136986;27;20428;-77
2022/06/25 06:30:52;;;;;;;11.88;6.00;;;;;;;27.10;99.45;100816.50;5136464;27;20122;-77
2022/06/25 06:33:38;;;;;;;11.05;4.88;;;;;;;26.83;95.30;100821.50;5137721;27;20122;-75
2022/06/25 06:36:24;;;;;;;12.52;4.97;;;;;;;27.03;95.46;100815.31;5135892;27;20047;-77
2022/06/25 06:39:10;;;;;;;12.23;5.07;;;;;;;27.37;92.69;100814.19;5136796;27;20027;-77
2022/06/25 06:41:56;;;;;;;10.00;4.35;;;;;;;27.52;91.12;100815.56;5139596;27;20101;-77
2022/06/25 06:44:41;;;;;;;10.20;4.32;;;;;;;27.87;87.10;100822.44;5138931;27;20094;-77
2022/06/25 06:47:27;;;;;;;8.48;4.72;;;;;;;27.58;96.52;100816.88;5143223;27;20023;-76
2022/06/25 06:50:13;;;;;;;12.77;5.05;;;;;;;27.77;98.20;100810.75;5128134;27;20056;-77
2022/06/25 06:52:59;;;;;;;11.90;5.63;;;;;;;28.04;96.68;100803.81;5152057;27;20027;-77
2022/06/25 06:55:44;;;;;;;6.45;4.45;;;;;;;27.53;88.78;100813.75;5154661;27;20023;-75
2022/06/25 06:58:30;;;;;;;10.20;4.05;;;;;;;27.96;84.77;100818.97;5154704;27;20020;-76
2022/06/25 07:01:16;;;;;;;11.07;4.05;;;;;;;28.19;83.38;100802.47;5153974;27;20454;-77
2022/06/25 07:04:02;;;;;;;7.97;4.20;;;;;;;28.35;77.11;100805.50;5158221;27;20042;-76
2022/06/25 07:06:47;;;;;;;5.85;3.70;;;;;;;28.31;76.91;100809.47;5159174;27;20020;-75
2022/06/25 07:09:33;;;;;;;6.38;4.10;;;;;;;28.39;73.78;100814.16;5144639;27;20075;-76
2022/06/25 07:12:19;;;;;;;5.60;3.95;;;;;;;28.33;73.76;100804.78;5157838;27;20003;-77
2022/06/25 07:15:05;;;;;;;7.50;4.68;;;;;;;28.57;72.35;100810.69;5128621;27;20114;-76
2022/06/25 07:17:51;;;;;;;5.25;4.10;;;;;;;28.79;73.10;100801.50;5136706;27;20023;-76
2022/06/25 07:20:37;;;;;;;6.68;4.60;;;;;;;28.84;74.18;100805.47;5136152;27;20031;-76
2022/06/25 07:23:22;;;;;;;7.38;4.03;;;;;;;28.76;72.70;100808.03;5134692;27;20026;-76
2022/06/25 07:26:08;;;;;;;5.75;4.53;;;;;;;28.74;72.87;100804.63;5122893;27;20047;-77
2022/06/25 07:28:55;;;;;;;12.82;5.00;;;;;;;28.93;74.75;100801.94;5135593;27;20035;-77
2022/06/25 07:31:41;;;;;;;8.32;4.88;;;;;;;28.94;75.12;100808.19;5136896;27;20019;-77
2022/06/25 07:34:27;;;;;;;5.82;4.30;;;;;;;29.33;73.78;100812.63;5137044;27;20031;-76
2022/06/25 07:37:13;;;;;;;10.10;4.57;;;;;;;29.22;72.22;100812.78;5119748;27;20038;-76
2022/06/25 07:39:59;;;;;;;7.28;4.72;;;;;;;29.34;68.40;100812.50;5135179;27;20023;-77
2022/06/25 07:42:44;;;;;;;7.90;4.95;;;;;;;29.56;68.14;100808.59;5135134;27;20027;-75
2022/06/25 07:45:32;;;;;;;6.82;4.85;;;;;;;30.33;67.15;100808.22;5121864;27;20027;-76
2022/06/25 07:48:17;;;;;;;9.45;5.15;;;;;;;29.80;66.62;100812.56;5134847;28;20382;-76
2022/06/25 07:54:08;;;;;;;6.50;4.20;;;;;;;30.42;57.74;100807.31;5134622;28;20053;-77
2022/06/25 07:56:54;;;;;;;7.97;4.22;;;;;;;30.12;59.23;100813.00;5136172;28;20132;-76
2022/06/25 07:59:40;;;;;;;7.18;3.72;;;;;;;29.70;57.23;100813.59;5135020;28;20038;-77
2022/06/25 08:02:26;;;;;;;5.05;3.92;;;;;;;30.88;56.29;100812.63;5135307;28;20038;-76
2022/06/25 08:05:12;;;;;;;10.50;4.18;;;;;;;30.14;57.85;100796.69;5135127;28;20020;-77
2022/06/25 08:07:58;;;;;;;8.13;4.20;;;;;;;29.96;58.39;100799.28;5136553;27;20110;-76
2022/06/25 08:10:44;;;;;;;8.70;3.83;;;;;;;30.37;54.90;100806.94;5123701;27;20019;-77
2022/06/25 08:13:29;;;;;;;5.97;4.05;;;;;;;30.64;54.41;100804.22;5138420;27;20027;-76
2022/06/25 08:16:15;;;;;;;5.72;4.18;;;;;;;31.10;51.97;100805.91;5139259;27;20023;-75
2022/06/25 08:19:01;;;;;;;5.47;3.75;;;;;;;30.61;52.40;100809.06;5137524;27;20027;-76
2022/06/25 08:21:47;;;;;;;5.07;3.88;;;;;;;31.39;55.13;100812.75;5138264;27;20041;-77
2022/06/25 08:24:32;;;;;;;6.25;4.35;;;;;;;31.87;56.23;100808.72;5138246;27;20054;-75
2022/06/25 08:27:25;;;;;;;6.15;3.60;;;;;;;32.25;49.69;100805.50;5137981;27;20109;-76
2022/06/25 08:30:11;;;;;;;7.25;3.92;;;;;;;32.03;49.95;100804.25;5122065;27;20027;-76
2022/06/25 08:33:19;;;;;;;6.32;4.22;;;;;;;31.97;48.45;100810.31;5142062;27;20027;-75
2022/06/25 08:36:11;;;;;;;13.30;4.93;;;;;;;32.35;51.04;100801.72;5130506;27;20035;-75
2022/06/25 08:39:00;;;;;;;6.65;4.20;;;;;;;32.48;49.32;100806.66;5126807;27;20090;-74
2022/06/25 08:41:46;;;;;;;6.40;3.85;;;;;;;32.26;48.99;100801.81;5127199;27;20114;-74
2022/06/25 08:44:32;;;;;;;6.13;3.78;;;;;;;33.25;47.60;100801.72;5141696;27;20124;-74
2022/06/25 08:47:18;;;;;;;5.72;3.80;;;;;;;32.86;47.23;100806.97;5137572;27;20058;-74
2022/06/25 08:50:04;;;;;;;9.88;4.05;;;;;;;32.75;47.93;100811.84;5138379;27;20033;-74
2022/06/25 08:52:52;;;;;;;4.50;3.70;;;;;;;32.43;47.02;100801.75;5122809;27;20051;-74
2022/06/25 08:55:39;;;;;;;15.13;4.53;;;;;;;32.33;47.41;100802.88;5137638;27;20467;-73
2022/06/25 08:58:24;;;;;;;25.50;5.18;;;;;;;32.96;46.77;100804.09;5137619;27;20448;-74
2022/06/25 09:01:13;;;;;;;9.73;4.50;;;;;;;33.23;45.64;100810.03;5137814;27;20029;-73
2022/06/25 09:03:59;;;;;;;12.43;3.80;;;;;;;32.92;45.11;100806.31;5122559;27;20019;-73
2022/06/25 09:06:45;;;;;;;6.50;3.70;;;;;;;32.84;46.94;100805.44;5124564;27;20418;-72
2022/06/25 09:09:30;;;;;;;6.68;4.07;;;;;;;32.66;47.00;100805.53;5137057;27;20404;-74
2022/06/25 09:12:17;;;;;;;8.13;5.95;;;;;;;32.10;48.11;100813.41;5136845;27;20033;-74
2022/06/25 09:15:18;;;;;;;12.68;7.32;;;;;;;32.63;46.95;100800.44;5135947;27;20102;-73
2022/06/25 09:18:09;;;;;;;7.43;3.60;;;;;;;32.80;45.17;100807.59;5123104;27;20027;-73
2022/06/25 09:21:04;;;;;;;8.55;3.60;;;;;;;33.25;45.26;100810.75;5136927;27;20030;-74
2022/06/25 09:24:03;;;;;;;13.40;4.50;;;;;;;33.04;45.80;100804.09;5121269;27;20051;-73
2022/06/25 09:26:50;;;;;;;6.57;4.00;;;;;;;33.13;45.27;100809.38;5136589;27;20051;-74
2022/06/25 09:29:44;;;;;;;5.35;3.55;;;;;;;33.13;45.35;100808.50;5137131;27;20066;-75
2022/06/25 09:32:50;;;;;;;5.97;3.97;;;;;;;33.11;45.95;100803.25;5123342;27;20132;-74
2022/06/25 09:35:43;;;;;;;9.05;4.22;;;;;;;32.95;44.71;100807.84;5137173;27;20031;-74
2022/06/25 09:38:30;;;;;;;5.85;3.85;;;;;;;32.91;44.08;100792.91;5136986;27;20034;-73
2022/06/25 09:41:16;;;;;;;9.85;4.05;;;;;;;32.94;46.15;100798.00;5121723;27;20114;-75
2022/06/25 09:44:15;;;;;;;4.80;3.70;;;;;;;33.04;44.29;100799.53;5121743;27;20023;-74
2022/06/25 09:47:02;;;;;;;5.72;4.00;;;;;;;33.21;44.86;100801.22;5136821;27;20152;-73
2022/06/25 09:49:47;;;;;;;9.60;3.47;;;;;;;32.36;45.35;100797.97;5137439;27;20069;-74
2022/06/25 09:52:36;;;;;;;7.38;3.38;;;;;;;32.82;44.34;100793.91;5136208;27;20023;-75
2022/06/25 09:55:28;;;;;;;4.35;3.67;;;;;;;33.16;43.40;100794.59;5136826;27;20444;-74
2022/06/25 09:58:14;;;;;;;7.05;5.35;;;;;;;32.63;43.51;100795.03;5136687;27;20072;-75
2022/06/25 10:01:02;;;;;;;8.95;4.28;;;;;;;32.92;42.97;100797.31;5121988;27;20035;-75
2022/06/25 10:03:48;;;;;;;7.75;4.05;;;;;;;33.00;42.74;100798.16;5125200;27;20102;-76
2022/06/25 10:06:35;;;;;;;6.53;3.40;;;;;;;32.63;42.69;100800.44;5137337;27;20023;-76
2022/06/25 10:09:25;;;;;;;5.97;3.67;;;;;;;31.90;43.90;100790.25;5122610;27;20060;-76
2022/06/25 10:12:14;;;;;;;5.63;3.13;;;;;;;31.82;43.63;100798.34;5137056;27;20019;-77
2022/06/25 10:15:00;;;;;;;10.77;3.55;;;;;;;31.80;42.83;100804.94;5137758;27;20046;-77
2022/06/25 10:17:51;;;;;;;5.47;3.70;;;;;;;32.01;42.41;100794.59;5138437;27;20060;-75
2022/06/25 10:20:42;;;;;;;14.43;3.38;;;;;;;31.90;42.89;100800.28;5138379;27;20023;-76
2022/06/25 10:23:28;;;;;;;4.43;3.95;;;;;;;31.78;43.75;100793.44;5136581;27;20027;-76
2022/06/25 10:26:14;;;;;;;7.47;3.72;;;;;;;32.18;44.01;100788.22;5122312;27;20047;-77
2022/06/25 10:29:02;;;;;;;4.25;3.13;;;;;;;32.22;42.89;100792.31;5137104;27;20050;-75
2022/06/25 10:31:48;;;;;;;8.70;3.83;;;;;;;32.43;44.01;100790.03;5123865;27;20034;-75
2022/06/25 10:34:34;;;;;;;5.43;3.50;;;;;;;31.95;43.08;100792.50;5138919;27;20466;-76
2022/06/25 10:37:20;;;;;;;7.57;3.45;;;;;;;32.24;42.79;100788.41;5138765;27;20412;-76
2022/06/25 10:40:07;;;;;;;4.93;3.50;;;;;;;32.39;42.71;100794.94;5139515;27;20073;-75
2022/06/25 10:42:59;;;;;;;6.05;3.63;;;;;;;32.50;42.86;100799.22;5121438;27;20019;-76
2022/06/25 10:45:45;;;;;;;8.98;3.72;;;;;;;32.37;43.06;100796.09;5136857;27;20359;-76
2022/06/25 10:48:31;;;;;;;9.18;3.70;;;;;;;32.23;42.51;100794.00;5120920;27;20409;-76
2022/06/25 10:51:32;;;;;;;9.20;4.00;;;;;;;32.08;42.54;100793.75;5135766;27;20029;-76
2022/06/25 10:54:24;;;;;;;5.45;3.50;;;;;;;32.42;42.07;100786.47;5121467;27;20058;-77
2022/06/25 10:57:10;;;;;;;11.75;3.75;;;;;;;32.69;42.03;100794.34;5136013;27;20028;-76
2022/06/25 11:00:03;;;;;;;16.25;12.40;;;;;;;32.63;42.29;100794.16;5121610;27;20097;-76
2022/06/25 11:02:53;;;;;;;7.32;3.75;;;;;;;32.35;43.33;100792.72;5136730;27;20031;-77
2022/06/25 11:05:47;;;;;;;7.63;3.80;;;;;;;32.51;42.75;100790.06;5120287;27;20019;-76
2022/06/25 11:08:34;;;;;;;6.82;3.47;;;;;;;32.59;42.81;100788.22;5120926;27;20023;-77
2022/06/25 11:11:30;;;;;;;4.18;3.28;;;;;;;33.04;42.44;100785.94;5134531;27;20027;-76
2022/06/25 11:14:22;;;;;;;5.72;3.50;;;;;;;33.34;41.64;100787.16;5120417;27;20130;-76
2022/06/25 11:17:09;;;;;;;4.20;3.40;;;;;;;33.18;41.02;100790.69;5135049;27;20037;-77
2022/06/25 11:20:08;;;;;;;9.40;3.42;;;;;;;32.34;42.61;100783.72;5135431;27;20026;-77
2022/06/25 11:22:54;;;;;;;6.97;3.92;;;;;;;32.94;42.40;100787.13;5135529;27;20433;-77
2022/06/25 11:28:58;;;;;;;5.90;3.50;;;;;;;32.43;42.18;100771.91;5123833;27;20043;-75
2022/06/25 11:31:45;;;;;;;4.88;3.80;;;;;;;32.61;41.12;100779.91;5121217;27;20019;-76
2022/06/25 11:34:31;;;;;;;4.55;3.50;;;;;;;32.21;41.14;100783.31;5135231;27;20019;-76
2022/06/25 11:37:18;;;;;;;5.45;3.55;;;;;;;32.50;40.71;100767.50;5135299;27;20208;-76
2022/06/25 11:40:13;;;;;;;7.20;4.60;;;;;;;32.62;40.43;100771.59;5135103;27;20444;-76
2022/06/25 11:43:06;;;;;;;18.17;15.57;;;;;;;33.04;40.61;100776.94;5118772;27;20457;-77
2022/06/25 11:45:56;;;;;;;3.65;3.35;;;;;;;33.36;39.88;100777.84;5135087;27;20095;-74
2022/06/25 11:48:42;;;;;;;6.07;4.00;;;;;;;33.62;39.20;100773.03;5133024;28;20096;-72
2022/06/25 11:51:28;;;;;;;5.45;3.85;;;;;;;33.33;39.51;100780.03;5133981;28;20474;-74
2022/06/25 11:54:16;;;;;;;10.65;4.00;;;;;;;34.19;38.76;100773.75;5133230;28;20046;-74
2022/06/25 11:57:06;;;;;;;5.50;3.88;;;;;;;33.89;38.40;100779.97;5133922;28;20443;-73
2022/06/25 11:59:53;;;;;;;5.47;3.30;;;;;;;33.84;38.91;100783.22;5133970;28;20027;-73
2022/06/25 12:02:41;;;;;;;4.05;3.45;;;;;;;33.84;39.35;100782.34;5133937;28;20479;-73
2022/06/25 12:05:28;;;;;;;6.60;3.42;;;;;;;33.62;39.20;100772.16;5119457;28;20035;-74
2022/06/25 12:08:14;;;;;;;7.05;3.72;;;;;;;33.31;39.44;100782.03;5118758;28;20113;-73
2022/06/25 12:11:01;;;;;;;8.25;3.53;;;;;;;33.50;39.67;100774.41;5118263;28;20031;-73
2022/06/25 12:13:48;;;;;;;5.00;3.55;;;;;;;33.52;38.46;100785.97;5133610;28;20039;-74
2022/06/25 12:16:42;;;;;;;5.72;3.50;;;;;;;33.05;39.49;100778.63;5134027;28;20439;-74
2022/06/25 12:19:44;;;;;;;5.47;3.60;;;;;;;33.41;39.36;100769.16;5133458;28;20367;-73
2022/06/25 12:22:30;;;;;;;5.68;3.22;;;;;;;32.47;40.41;100770.56;5134262;28;20363;-73
2022/06/25 12:25:27;;;;;;;4.53;3.40;;;;;;;32.78;40.94;100757.22;5133968;28;20507;-74
2022/06/25 12:28:14;;;;;;;8.63;3.72;;;;;;;33.31;39.57;100768.47;5133904;28;20035;-73
2022/06/25 12:31:10;;;;;;;4.55;3.40;;;;;;;33.48;39.54;100765.59;5118893;28;20372;-72
2022/06/25 12:33:56;;;;;;;4.80;3.70;;;;;;;33.54;39.62;100769.47;5117535;28;20030;-74
2022/06/25 12:36:41;;;;;;;6.85;3.80;;;;;;;33.38;39.40;100772.19;5133403;28;20031;-73
2022/06/25 12:39:28;;;;;;;5.85;4.18;;;;;;;33.10;40.49;100763.53;5118747;28;20064;-73
2022/06/25 12:42:14;;;;;;;6.35;3.83;;;;;;;32.91;40.26;100758.44;5133557;28;20467;-74
2022/06/25 12:45:00;;;;;;;9.25;7.82;;;;;;;33.25;40.07;100764.56;5132747;28;20416;-73
2022/06/25 12:47:46;;;;;;;4.93;3.60;;;;;;;33.36;39.98;100757.97;5133317;28;20484;-73
2022/06/25 12:50:33;;;;;;;9.82;3.70;;;;;;;33.49;40.00;100756.41;5119580;28;20031;-74
2022/06/25 12:53:19;;;;;;;4.05;3.45;;;;;;;33.75;39.66;100754.31;5119624;27;20015;-73
2022/06/25 12:56:05;;;;;;;10.00;3.45;;;;;;;33.38;38.77;100761.34;5137479;27;20019;-73
2022/06/25 12:58:50;;;;;;;6.22;3.70;;;;;;;33.82;38.32;100762.63;5136817;27;20127;-73
2022/06/25 13:01:36;;;;;;;4.10;3.70;;;;;;;33.83;38.34;100756.19;5137270;27;20072;-73
2022/06/25 13:04:22;;;;;;;6.85;3.47;;;;;;;33.36;38.13;100761.53;5122681;27;20059;-73
2022/06/25 13:07:10;;;;;;;6.00;3.65;;;;;;;33.55;39.50;100760.31;5121723;27;20397;-73